Time;durP1;ratioP1;P1;durP2;ratioP2;P2;SDS_P1;SDS_P2;PMS_P1;PMS_P2;Temp;Humidity;BMP_temperature;BMP_pressure;BME280_temperature;BME280_humidity;BME280_pressure;Samples;Min_cycle;Max_cycle;Signal;HPM_P1;HPM_P2
2021/09/21 00:02:03;;;;;;;4.18;2.78;;;;;;;8.05;100.00;99318.50;5069583;28;20052;-56
2021/09/21 00:04:29;;;;;;;4.78;3.17;;;;;;;8.06;100.00;99327.94;5069099;28;20037;-57
2021/09/21 00:06:56;;;;;;;6.13;3.15;;;;;;;8.05;100.00;99314.16;5070659;28;20056;-57
2021/09/21 00:09:22;;;;;;;4.95;2.70;;;;;;;8.04;100.00;99327.13;5074618;28;20048;-58
2021/09/21 00:11:48;;;;;;;3.65;2.63;;;;;;;8.04;100.00;99314.19;5068692;28;20048;-57
2021/09/21 00:14:14;;;;;;;4.47;2.88;;;;;;;8.04;100.00;99316.78;5069810;28;20047;-58
2021/09/21 00:16:39;;;;;;;4.45;2.85;;;;;;;7.96;100.00;99296.28;5072585;28;20430;-56
2021/09/21 00:19:05;;;;;;;3.15;2.53;;;;;;;7.95;100.00;99297.22;5070699;28;20048;-58
2021/09/21 00:21:31;;;;;;;3.63;2.28;;;;;;;8.01;100.00;99304.75;5087006;28;20388;-56
2021/09/21 00:23:57;;;;;;;5.72;2.95;;;;;;;8.01;100.00;99304.75;5075258;28;20040;-55
2021/09/21 00:26:22;;;;;;;4.80;3.10;;;;;;;8.03;100.00;99299.56;5071456;28;20036;-57
2021/09/21 00:28:48;;;;;;;3.20;2.20;;;;;;;8.05;100.00;99298.63;5069064;28;20127;-53
2021/09/21 00:31:15;;;;;;;6.63;2.58;;;;;;;7.98;100.00;99283.31;5068054;28;20044;-53
2021/09/21 00:34:15;;;;;;;4.28;3.08;;;;;;;8.08;100.00;99295.94;5068948;28;20097;-57
2021/09/21 00:36:37;;;;;;;4.55;2.90;;;;;;;8.03;100.00;99282.28;5068319;28;20592;-54
2021/09/21 00:39:05;;;;;;;3.90;2.60;;;;;;;8.07;100.00;99290.78;5071440;28;20048;-56
2021/09/21 00:41:33;;;;;;;4.65;2.85;;;;;;;8.05;100.00;99283.09;5073204;28;20037;-54
2021/09/21 00:43:58;;;;;;;4.70;2.60;;;;;;;8.09;100.00;99289.00;5071235;28;20059;-56
2021/09/21 00:46:24;;;;;;;4.15;2.35;;;;;;;8.04;100.00;99281.41;5072494;28;20095;-56
2021/09/21 00:48:50;;;;;;;5.22;2.58;;;;;;;8.06;100.00;99281.31;5085044;28;20050;-52
2021/09/21 00:51:15;;;;;;;4.75;2.80;;;;;;;8.09;100.00;99289.00;5059320;28;20123;-54
2021/09/21 00:53:41;;;;;;;3.97;2.50;;;;;;;8.06;100.00;99284.75;5072847;28;20139;-56
2021/09/21 00:56:07;;;;;;;4.40;2.72;;;;;;;8.05;100.00;99277.06;5071520;28;20058;-55
2021/09/21 00:58:33;;;;;;;4.40;2.33;;;;;;;8.05;100.00;99274.47;5089743;28;20499;-55
2021/09/21 01:00:59;;;;;;;4.07;2.70;;;;;;;8.05;100.00;99277.06;5079051;28;20044;-58
2021/09/21 01:03:24;;;;;;;4.18;2.33;;;;;;;8.05;100.00;99277.91;5092964;28;20538;-55
2021/09/21 01:05:50;;;;;;;6.30;2.60;;;;;;;8.07;100.00;99283.03;5091420;28;20098;-55
2021/09/21 01:08:16;;;;;;;3.88;2.80;;;;;;;8.08;100.00;99276.97;5083518;28;20047;-56
2021/09/21 01:10:41;;;;;;;3.47;2.33;;;;;;;8.06;100.00;99269.22;5071003;28;20064;-56
2021/09/21 01:13:07;;;;;;;4.03;2.58;;;;;;;8.06;100.00;99274.41;5072312;28;20044;-54
2021/09/21 01:15:33;;;;;;;4.18;2.25;;;;;;;8.01;100.00;99259.91;5072572;28;20044;-58
2021/09/21 01:17:59;;;;;;;5.35;2.67;;;;;;;8.10;100.00;99280.34;5070474;28;20044;-54
2021/09/21 01:20:26;;;;;;;6.43;2.75;;;;;;;8.11;100.00;99271.72;5071028;28;20044;-55
2021/09/21 01:22:52;;;;;;;3.15;2.17;;;;;;;8.14;100.00;99266.41;5071283;28;20089;-55
2021/09/21 01:25:18;;;;;;;4.22;2.15;;;;;;;8.13;100.00;99271.63;5072367;28;20048;-55
2021/09/21 01:27:43;;;;;;;5.20;2.50;;;;;;;8.07;100.00;99270.94;5071874;28;20039;-55
2021/09/21 01:30:12;;;;;;;3.17;2.20;;;;;;;8.07;100.00;99259.72;5071998;28;20496;-55
2021/09/21 01:32:38;;;;;;;3.42;2.30;;;;;;;8.16;100.00;99263.78;5072729;28;20040;-56
2021/09/21 01:35:05;;;;;;;5.53;2.10;;;;;;;8.16;100.00;99269.81;5071071;28;20043;-54
2021/09/21 01:37:31;;;;;;;4.05;1.98;;;;;;;8.16;100.00;99268.97;5070262;28;20036;-52
2021/09/21 01:39:57;;;;;;;4.25;1.90;;;;;;;8.17;100.00;99268.91;5070714;28;20040;-53
2021/09/21 01:42:23;;;;;;;2.88;1.92;;;;;;;8.15;100.00;99267.28;5071649;28;20048;-54
2021/09/21 01:44:48;;;;;;;2.85;1.98;;;;;;;8.04;100.00;99252.06;5071303;28;20634;-51
2021/09/21 01:47:16;;;;;;;3.80;2.15;;;;;;;8.14;100.00;99265.56;5071401;28;20040;-56
2021/09/21 01:52:48;;;;;;;3.22;2.10;;;;;;;7.99;100.00;99235.84;5071991;28;20041;-54
2021/09/21 02:00:24;;;;;;;2.78;1.90;;;;;;;8.16;100.00;99251.69;5071300;28;20055;-58
2021/09/21 02:02:49;;;;;;;5.43;1.95;;;;;;;8.13;100.00;99248.34;5070768;28;20041;-54
2021/09/21 02:05:15;;;;;;;2.97;2.00;;;;;;;8.14;100.00;99253.47;5083299;28;20075;-54
2021/09/21 02:07:41;;;;;;;2.58;1.77;;;;;;;8.15;100.00;99247.41;5074783;28;20075;-58
2021/09/21 02:10:07;;;;;;;2.65;1.95;;;;;;;8.05;100.00;99240.81;5070972;28;20071;-55
2021/09/21 02:12:33;;;;;;;2.70;1.80;;;;;;;8.07;100.00;99246.78;5071371;28;20044;-58
2021/09/21 02:15:00;;;;;;;2.90;2.10;;;;;;;8.07;100.00;99246.78;5071144;28;20094;-57
2021/09/21 02:17:27;;;;;;;3.60;1.70;;;;;;;8.06;100.00;99248.53;5070882;28;20041;-56
2021/09/21 02:19:52;;;;;;;2.80;1.75;;;;;;;8.05;100.00;99240.81;5070568;28;20041;-57
2021/09/21 02:22:18;;;;;;;2.70;1.85;;;;;;;8.08;100.00;99238.97;5070756;28;20062;-55
2021/09/21 02:24:44;;;;;;;2.40;1.75;;;;;;;8.08;100.00;99241.56;5070454;28;20043;-57
2021/09/21 02:27:09;;;;;;;3.10;1.95;;;;;;;8.08;100.00;99241.56;5070218;28;20059;-55
2021/09/21 02:29:35;;;;;;;3.63;1.52;;;;;;;8.10;100.00;99236.34;5071122;28;20040;-58
2021/09/21 02:32:01;;;;;;;2.28;1.60;;;;;;;8.13;100.00;99238.81;5070598;28;20036;-56
2021/09/21 02:34:27;;;;;;;2.20;1.80;;;;;;;8.15;100.00;99237.06;5071266;28;21039;-58
2021/09/21 02:36:52;;;;;;;3.80;1.75;;;;;;;8.15;100.00;99231.03;5070865;28;20040;-55
2021/09/21 02:39:18;;;;;;;2.30;1.50;;;;;;;8.16;100.00;99233.56;5070974;28;20036;-58
2021/09/21 02:41:44;;;;;;;3.58;1.70;;;;;;;8.14;100.00;99226.72;5072210;28;20119;-59
2021/09/21 02:44:10;;;;;;;2.70;1.67;;;;;;;8.07;100.00;99213.97;5071198;28;20051;-59
2021/09/21 02:46:35;;;;;;;2.72;2.05;;;;;;;8.19;100.00;99235.19;5070193;28;20095;-58
2021/09/21 02:49:03;;;;;;;2.22;1.45;;;;;;;8.21;100.00;99226.50;5080498;28;20040;-55
2021/09/21 02:51:29;;;;;;;2.33;1.80;;;;;;;8.22;100.00;99235.09;5082560;28;20138;-52
2021/09/21 02:53:54;;;;;;;2.50;1.50;;;;;;;8.15;100.00;99205.13;5070446;28;20123;-53
2021/09/21 02:56:20;;;;;;;5.75;1.73;;;;;;;8.27;100.00;99231.47;5069400;28;20048;-55
2021/09/21 02:58:46;;;;;;;2.15;1.45;;;;;;;8.25;100.00;99220.31;5070500;28;20127;-55
2021/09/21 03:01:11;;;;;;;2.13;1.50;;;;;;;8.29;100.00;99231.41;5069003;28;20036;-54
2021/09/21 03:03:53;;;;;;;2.78;1.48;;;;;;;8.33;100.00;99231.28;5069227;28;20063;-57
2021/09/21 03:06:35;;;;;;;2.35;1.60;;;;;;;8.34;100.00;99219.19;5078120;28;20099;-55
2021/09/21 03:11:56;;;;;;;3.30;1.50;;;;;;;8.37;100.00;99221.72;5051695;28;20052;-54
2021/09/21 03:17:17;;;;;;;2.47;1.45;;;;;;;8.37;100.00;99214.75;5059548;28;20055;-56
2021/09/21 03:19:43;;;;;;;2.53;1.40;;;;;;;8.40;100.00;99211.22;5069816;28;20040;-51
2021/09/21 03:22:09;;;;;;;2.33;1.50;;;;;;;8.43;100.00;99200.75;5070691;28;20040;-52
2021/09/21 03:24:34;;;;;;;2.30;1.48;;;;;;;8.41;100.00;99198.25;5088797;28;20044;-56
2021/09/21 03:27:00;;;;;;;1.23;1.13;;;;;;;8.37;100.00;99203.56;5089428;28;20044;-55
2021/09/21 03:29:27;;;;;;;1.50;1.15;;;;;;;8.35;100.00;99198.44;5078746;28;20531;-55
2021/09/21 03:31:53;;;;;;;2.25;1.35;;;;;;;8.29;100.00;99187.38;5069975;28;20127;-55
2021/09/21 03:34:18;;;;;;;4.28;1.83;;;;;;;8.42;100.00;99205.13;5070150;28;20139;-53
2021/09/21 03:36:44;;;;;;;5.68;1.60;;;;;;;8.41;100.00;99208.59;5070046;28;20037;-56
2021/09/21 03:39:10;;;;;;;2.47;1.40;;;;;;;8.42;100.00;99214.63;5069231;28;20037;-57
2021/09/21 03:41:35;;;;;;;2.10;1.60;;;;;;;8.46;100.00;99211.88;5069385;28;20048;-55
2021/09/21 03:44:01;;;;;;;2.40;1.63;;;;;;;8.47;100.00;99205.81;5069514;28;20043;-54
2021/09/21 03:46:27;;;;;;;2.55;1.55;;;;;;;8.48;100.00;99207.47;5069851;28;20040;-56
2021/09/21 03:48:54;;;;;;;2.53;1.60;;;;;;;8.50;100.00;99210.88;5082915;28;20040;-57
2021/09/21 03:51:20;;;;;;;2.30;1.58;;;;;;;8.50;100.00;99220.38;5086276;28;20127;-55
2021/09/21 03:53:46;;;;;;;2.33;1.52;;;;;;;8.52;100.00;99218.59;5051783;28;20169;-55
2021/09/21 03:56:12;;;;;;;1.80;1.52;;;;;;;8.53;100.00;99220.28;5070004;28;20154;-57
2021/09/21 03:58:37;;;;;;;2.00;1.30;;;;;;;8.54;100.00;99211.59;5069855;28;20040;-57
2021/09/21 04:01:03;;;;;;;2.88;1.50;;;;;;;8.44;100.00;99195.53;5069050;28;20036;-57
2021/09/21 04:03:29;;;;;;;2.00;1.70;;;;;;;8.53;100.00;99209.09;5069338;28;20048;-56
2021/09/21 04:05:55;;;;;;;3.75;2.08;;;;;;;8.45;100.00;99194.63;5067837;28;20056;-55
2021/09/21 04:08:21;;;;;;;4.50;1.95;;;;;;;8.54;100.00;99202.97;5079362;28;20051;-54
2021/09/21 04:10:46;;;;;;;4.35;1.70;;;;;;;8.48;100.00;99196.25;5069838;28;20043;-55
2021/09/21 04:13:12;;;;;;;1.92;1.48;;;;;;;8.53;100.00;99199.53;5071168;28;20064;-55
2021/09/21 04:15:38;;;;;;;5.38;2.08;;;;;;;8.56;100.00;99196.88;5072417;28;20039;-55
2021/09/21 04:18:05;;;;;;;2.35;1.75;;;;;;;8.58;100.00;99199.41;5054633;28;20036;-56
2021/09/21 04:20:31;;;;;;;3.30;1.70;;;;;;;8.53;100.00;99181.41;5072834;28;20127;-55
2021/09/21 04:22:57;;;;;;;2.35;1.92;;;;;;;8.63;100.00;99200.09;5073620;28;20040;-54
2021/09/21 04:25:23;;;;;;;3.28;2.05;;;;;;;8.65;100.00;99191.38;5072749;28;20041;-54
2021/09/21 04:27:48;;;;;;;3.65;1.63;;;;;;;8.66;100.00;99187.88;5072998;28;20420;-56
2021/09/21 04:30:21;;;;;;;3.15;2.20;;;;;;;8.65;100.00;99185.34;5073685;28;20032;-54
2021/09/21 04:32:47;;;;;;;2.80;2.00;;;;;;;8.63;100.00;99188.00;5079688;28;20427;-54
2021/09/21 04:35:12;;;;;;;2.50;1.52;;;;;;;8.61;100.00;99187.19;5072670;28;20040;-55
2021/09/21 04:37:38;;;;;;;4.90;2.30;;;;;;;8.66;100.00;99179.25;5076657;28;20036;-57
2021/09/21 04:40:05;;;;;;;4.90;1.80;;;;;;;8.69;100.00;99184.34;5079995;28;20040;-56
2021/09/21 04:42:31;;;;;;;2.72;1.85;;;;;;;8.68;100.00;99191.28;5081694;28;20061;-56
2021/09/21 04:44:57;;;;;;;3.40;1.70;;;;;;;8.71;100.00;99188.56;5082460;28;20526;-56
2021/09/21 04:47:23;;;;;;;2.55;1.90;;;;;;;8.70;100.00;99197.22;5084906;28;20085;-58
2021/09/21 04:49:48;;;;;;;2.45;1.60;;;;;;;8.72;100.00;99186.81;5079945;28;20401;-61
2021/09/21 04:52:15;;;;;;;4.32;2.17;;;;;;;8.74;100.00;99185.84;5075712;28;20127;-52
2021/09/21 04:54:41;;;;;;;2.67;1.77;;;;;;;8.74;100.00;99193.63;5088778;28;20047;-57
2021/09/21 04:57:07;;;;;;;2.20;1.52;;;;;;;8.76;100.00;99189.25;5090669;28;20081;-50
2021/09/21 04:59:33;;;;;;;2.17;1.73;;;;;;;8.77;100.00;99183.19;5087322;28;20507;-62
2021/09/21 05:01:59;;;;;;;3.03;1.80;;;;;;;8.80;100.00;99188.25;5079659;28;20047;-51
2021/09/21 05:04:25;;;;;;;3.65;2.63;;;;;;;8.78;100.00;99187.47;5082642;28;20043;-56
2021/09/21 05:06:50;;;;;;;2.30;1.77;;;;;;;8.78;100.00;99195.25;5070080;28;20155;-56
2021/09/21 05:09:16;;;;;;;5.20;2.92;;;;;;;8.72;100.00;99182.50;5082291;28;20051;-55
2021/09/21 05:11:44;;;;;;;7.13;2.55;;;;;;;8.78;100.00;99191.81;5077305;28;20047;-63
2021/09/21 05:14:11;;;;;;;4.50;2.17;;;;;;;8.80;100.00;99187.38;5073322;28;20043;-59
2021/09/21 05:16:37;;;;;;;5.03;1.90;;;;;;;8.81;100.00;99187.34;5071259;28;20414;-58
2021/09/21 05:19:03;;;;;;;2.95;1.83;;;;;;;8.80;100.00;99198.59;5083560;28;20081;-60
2021/09/21 05:21:29;;;;;;;3.00;1.83;;;;;;;8.78;100.00;99194.38;5082497;28;20036;-60
2021/09/21 05:23:55;;;;;;;2.50;1.92;;;;;;;8.80;100.00;99195.16;5071110;28;20068;-58
2021/09/21 05:26:21;;;;;;;3.70;2.08;;;;;;;8.81;100.00;99195.13;5071658;28;20512;-59
2021/09/21 05:28:46;;;;;;;2.40;1.92;;;;;;;8.81;100.00;99197.72;5070919;28;20077;-63
2021/09/21 05:31:12;;;;;;;2.63;1.80;;;;;;;8.81;100.00;99192.53;5070779;28;20078;-58
2021/09/21 05:33:38;;;;;;;4.65;2.30;;;;;;;8.84;100.00;99191.59;5081172;28;20024;-58
2021/09/21 05:36:04;;;;;;;4.03;1.90;;;;;;;8.81;100.00;99176.97;5090531;28;20071;-59
2021/09/21 05:38:30;;;;;;;2.80;1.67;;;;;;;8.90;100.00;99188.75;5080854;28;20044;-60
2021/09/21 05:40:55;;;;;;;3.40;2.17;;;;;;;8.91;100.00;99187.84;5099571;28;20040;-53
2021/09/21 05:43:21;;;;;;;3.00;1.88;;;;;;;8.84;100.00;99179.47;5061051;28;20040;-55
2021/09/21 05:45:47;;;;;;;4.07;2.78;;;;;;;8.84;100.00;99179.47;5078152;28;20044;-58
2021/09/21 05:48:13;;;;;;;5.30;3.30;;;;;;;8.97;100.00;99184.22;5070325;28;20189;-59
2021/09/21 05:50:39;;;;;;;4.20;2.55;;;;;;;8.95;100.00;99180.84;5071399;28;20695;-57
2021/09/21 05:53:05;;;;;;;3.65;2.05;;;;;;;8.87;100.00;99157.78;5070847;28;20051;-58
2021/09/21 05:55:31;;;;;;;4.20;2.20;;;;;;;8.99;100.00;99178.09;5071654;28;20055;-58
2021/09/21 05:57:56;;;;;;;3.75;2.40;;;;;;;9.07;100.00;99190.75;5071702;28;20458;-57
2021/09/21 06:00:23;;;;;;;3.63;2.30;;;;;;;9.05;100.00;99183.06;5071608;28;20125;-58
2021/09/21 06:02:48;;;;;;;4.43;2.15;;;;;;;9.03;100.00;99184.84;5069278;28;20503;-59
2021/09/21 06:05:14;;;;;;;4.20;2.17;;;;;;;8.98;100.00;99178.13;5070363;28;20044;-57
2021/09/21 06:07:47;;;;;;;3.03;2.25;;;;;;;9.03;100.00;99184.84;5074564;28;20612;-58
2021/09/21 06:10:14;;;;;;;5.32;3.20;;;;;;;9.02;100.00;99187.47;5090047;28;20471;-58
2021/09/21 06:12:39;;;;;;;3.28;2.30;;;;;;;9.05;100.00;99184.78;5071601;28;20044;-59
2021/09/21 06:15:05;;;;;;;6.28;2.70;;;;;;;9.05;100.00;99187.38;5069857;28;20063;-55
2021/09/21 06:17:31;;;;;;;3.13;2.35;;;;;;;9.06;100.00;99187.31;5071095;28;20039;-55
2021/09/21 06:19:57;;;;;;;6.45;2.10;;;;;;;9.04;100.00;99189.13;5068974;28;20036;-61
2021/09/21 06:22:23;;;;;;;3.65;2.35;;;;;;;9.01;100.00;99186.63;5070967;28;20093;-59
2021/09/21 06:24:49;;;;;;;4.80;2.53;;;;;;;8.99;100.00;99174.63;5070827;28;20043;-60
2021/09/21 06:27:14;;;;;;;3.63;2.15;;;;;;;9.06;100.00;99189.91;5070987;28;20132;-57
2021/09/21 06:29:40;;;;;;;4.20;3.10;;;;;;;9.06;100.00;99183.88;5071001;28;20040;-54
2021/09/21 06:32:06;;;;;;;3.67;2.95;;;;;;;9.08;100.00;99174.28;5069746;28;20070;-58
2021/09/21 06:34:31;;;;;;;2.88;1.90;;;;;;;9.09;100.00;99191.56;5068851;28;20423;-56
2021/09/21 06:36:57;;;;;;;2.88;1.88;;;;;;;9.10;100.00;99188.06;5070699;28;20036;-59
2021/09/21 06:39:24;;;;;;;3.58;2.13;;;;;;;9.14;100.00;99185.31;5070859;28;20094;-57
2021/09/21 06:41:49;;;;;;;3.30;1.90;;;;;;;9.19;100.00;99190.31;5075109;28;20040;-57
2021/09/21 06:44:16;;;;;;;5.20;3.10;;;;;;;9.21;100.00;99186.75;5089317;28;20040;-64
2021/09/21 06:46:42;;;;;;;3.95;2.28;;;;;;;9.23;100.00;99194.47;5089528;28;20040;-65
2021/09/21 06:49:08;;;;;;;20.52;4.13;;;;;;;9.24;100.00;99181.47;5071658;28;20044;-59
2021/09/21 06:51:34;;;;;;;5.65;2.30;;;;;;;9.26;100.00;99184.81;5070402;28;20085;-60
2021/09/21 06:53:59;;;;;;;11.25;2.83;;;;;;;9.27;100.00;99193.47;5068860;28;20109;-53
2021/09/21 06:56:29;;;;;;;4.10;2.35;;;;;;;9.23;100.00;99178.91;5072961;28;20529;-58
2021/09/21 06:58:56;;;;;;;4.88;2.67;;;;;;;9.33;100.00;99185.47;5084426;28;20067;-59
2021/09/21 07:01:23;;;;;;;2.65;1.95;;;;;;;9.30;100.00;99181.25;5072597;28;20044;-59
2021/09/21 07:03:49;;;;;;;3.70;1.98;;;;;;;9.39;100.00;99185.22;5065436;28;20583;-58
2021/09/21 07:06:15;;;;;;;2.95;2.10;;;;;;;9.41;100.00;99191.22;5066722;28;20059;-54
2021/09/21 07:08:41;;;;;;;4.45;2.15;;;;;;;9.41;100.00;99187.78;5081187;28;20044;-59
2021/09/21 07:11:07;;;;;;;4.95;2.92;;;;;;;9.38;100.00;99186.13;5072064;28;20047;-60
2021/09/21 07:13:33;;;;;;;3.13;1.70;;;;;;;9.33;100.00;99186.31;5067242;28;20036;-59
2021/09/21 07:15:59;;;;;;;5.30;2.40;;;;;;;9.28;100.00;99183.03;5067943;28;20401;-59
2021/09/21 07:18:25;;;;;;;3.63;2.30;;;;;;;9.29;100.00;99187.31;5051524;28;20040;-58
2021/09/21 07:20:51;;;;;;;3.88;2.58;;;;;;;9.29;100.00;99187.31;5069119;28;20062;-59
2021/09/21 07:23:16;;;;;;;4.07;3.15;;;;;;;9.31;100.00;99182.09;5070428;28;20047;-59
2021/09/21 07:25:42;;;;;;;6.38;4.40;;;;;;;9.37;100.00;99194.00;5070191;28;20071;-58
2021/09/21 07:28:08;;;;;;;9.50;2.20;;;;;;;9.35;100.00;99199.22;5070028;28;20040;-59
2021/09/21 07:30:35;;;;;;;3.35;2.05;;;;;;;9.29;100.00;99192.50;5069951;28;20048;-60
2021/09/21 07:33:01;;;;;;;5.25;2.60;;;;;;;9.23;100.00;99195.31;5070093;28;20423;-59
2021/09/21 07:35:27;;;;;;;8.40;5.13;;;;;;;9.20;100.00;99189.41;5070022;28;20043;-59
2021/09/21 07:37:52;;;;;;;8.73;4.40;;;;;;;9.16;100.00;99191.25;5068844;28;20529;-59
2021/09/21 07:40:21;;;;;;;5.00;2.92;;;;;;;9.17;100.00;99197.28;5069976;28;20446;-59
2021/09/21 07:42:48;;;;;;;4.35;2.75;;;;;;;9.14;100.00;99197.41;5068545;28;20052;-61
2021/09/21 07:45:14;;;;;;;7.22;4.25;;;;;;;9.10;100.00;99196.69;5068715;28;20059;-59
2021/09/21 07:47:40;;;;;;;7.22;3.58;;;;;;;8.98;100.00;99175.53;5071365;28;20491;-57
2021/09/21 07:50:07;;;;;;;4.75;2.70;;;;;;;9.06;100.00;99189.06;5074157;28;20101;-59
2021/09/21 07:52:33;;;;;;;5.80;3.08;;;;;;;9.06;100.00;99187.31;5073444;28;20041;-55
2021/09/21 07:54:59;;;;;;;5.95;3.42;;;;;;;9.10;100.00;99196.69;5072886;28;20040;-59
2021/09/21 07:57:26;;;;;;;7.70;3.40;;;;;;;9.09;100.00;99189.81;5072983;28;20131;-59
2021/09/21 07:59:52;;;;;;;6.03;3.75;;;;;;;9.17;100.00;99197.28;5072965;28;20048;-60
2021/09/21 08:02:18;;;;;;;10.10;3.78;;;;;;;9.18;100.00;99194.66;5073852;28;20051;-59
2021/09/21 08:04:44;;;;;;;8.07;4.10;;;;;;;9.20;100.00;99199.78;5073872;28;20131;-58
2021/09/21 08:07:10;;;;;;;5.38;3.72;;;;;;;9.20;100.00;99194.59;5074092;28;20143;-57
2021/09/21 08:09:37;;;;;;;7.00;4.53;;;;;;;9.20;100.00;99190.28;5093753;28;20036;-60
2021/09/21 08:12:04;;;;;;;8.40;3.90;;;;;;;9.21;100.00;99186.75;5093813;28;20032;-58
2021/09/21 08:14:36;;;;;;;5.07;3.13;;;;;;;9.18;100.00;99193.81;5093921;28;20133;-60
2021/09/21 08:17:04;;;;;;;5.60;3.92;;;;;;;9.17;100.00;99184.31;5093855;28;20032;-59
2021/09/21 08:19:30;;;;;;;7.72;3.95;;;;;;;9.22;100.00;99185.00;5093857;28;20054;-60
2021/09/21 08:21:55;;;;;;;7.55;3.67;;;;;;;9.25;100.00;99187.50;5092804;28;20044;-58
2021/09/21 08:24:21;;;;;;;5.63;3.92;;;;;;;9.28;100.00;99187.38;5093675;28;20040;-59
2021/09/21 08:26:47;;;;;;;9.50;5.50;;;;;;;9.28;100.00;99184.78;5092324;28;20085;-58
2021/09/21 08:29:13;;;;;;;9.60;4.68;;;;;;;9.24;100.00;99176.28;5093526;28;20084;-60
2021/09/21 08:31:40;;;;;;;8.63;4.82;;;;;;;9.23;100.00;99190.16;5092301;28;20063;-58
2021/09/21 08:34:06;;;;;;;5.82;4.00;;;;;;;9.30;100.00;99186.44;5093538;28;20036;-60
2021/09/21 08:36:32;;;;;;;6.22;3.63;;;;;;;9.29;100.00;99179.53;5093619;28;20423;-59
2021/09/21 08:38:57;;;;;;;5.60;3.22;;;;;;;9.27;100.00;99183.09;5092269;28;20036;-59
2021/09/21 08:41:25;;;;;;;6.60;3.00;;;;;;;9.24;100.00;99183.22;5083802;28;20420;-58
2021/09/21 08:43:51;;;;;;;6.35;3.80;;;;;;;9.26;100.00;99197.78;5071776;28;20431;-58
2021/09/21 08:46:18;;;;;;;12.52;5.68;;;;;;;9.30;100.00;99195.97;5073105;28;20044;-60
2021/09/21 08:48:44;;;;;;;9.52;3.22;;;;;;;9.31;100.00;99192.47;5071564;28;20154;-60
2021/09/21 08:51:11;;;;;;;5.00;3.58;;;;;;;9.28;100.00;99188.22;5072652;28;20047;-58
2021/09/21 08:53:36;;;;;;;7.45;3.47;;;;;;;9.37;100.00;99191.41;5072772;28;20045;-58
2021/09/21 08:56:04;;;;;;;7.63;3.70;;;;;;;9.30;100.00;99188.19;5071708;28;20127;-60
2021/09/21 08:58:32;;;;;;;5.97;3.58;;;;;;;9.35;100.00;99200.06;5071320;28;20044;-58
2021/09/21 09:01:09;;;;;;;7.90;3.45;;;;;;;9.42;100.00;99187.69;5072899;28;20469;-59
2021/09/21 09:03:34;;;;;;;8.10;5.13;;;;;;;9.44;100.00;99188.50;5071352;28;20044;-59
2021/09/21 09:06:05;;;;;;;5.53;3.90;;;;;;;9.49;100.00;99196.94;5072362;28;20060;-59
2021/09/21 09:08:35;;;;;;;6.18;3.47;;;;;;;9.52;100.00;99206.38;5084741;28;20426;-55
2021/09/21 09:11:21;;;;;;;8.48;4.60;;;;;;;9.50;100.00;99190.03;5092785;28;20419;-61
2021/09/21 09:13:58;;;;;;;14.55;6.40;;;;;;;9.46;100.00;99194.50;5091363;28;20139;-58
2021/09/21 09:16:27;;;;;;;5.97;3.83;;;;;;;9.54;100.00;99204.56;5091420;28;20058;-59
2021/09/21 09:19:07;;;;;;;6.30;3.10;;;;;;;9.43;100.00;99198.94;5092527;28;20528;-59
2021/09/21 09:21:35;;;;;;;7.32;4.10;;;;;;;9.47;100.00;99211.75;5092587;28;20153;-60
2021/09/21 09:24:02;;;;;;;6.82;4.05;;;;;;;9.46;100.00;99204.00;5092368;28;20135;-58
2021/09/21 09:26:31;;;;;;;8.65;4.35;;;;;;;9.47;100.00;99201.38;5092577;28;20047;-60
2021/09/21 09:28:57;;;;;;;5.77;3.60;;;;;;;9.49;99.61;99199.56;5092411;28;20420;-61
2021/09/21 09:31:28;;;;;;;6.35;4.10;;;;;;;9.55;99.90;99198.47;5092103;28;20286;-62
2021/09/21 09:34:07;;;;;;;10.02;5.90;;;;;;;9.61;99.20;99195.66;5092485;28;20478;-61
2021/09/21 09:36:46;;;;;;;4.85;3.97;;;;;;;9.63;99.28;99202.47;5092602;28;20122;-60
2021/09/21 09:39:11;;;;;;;9.20;4.35;;;;;;;9.67;99.45;99205.81;5092500;28;20075;-60
2021/09/21 09:41:39;;;;;;;6.35;4.18;;;;;;;9.64;98.67;99205.91;5082203;28;20072;-60
2021/09/21 09:44:11;;;;;;;5.30;3.97;;;;;;;9.67;99.00;99208.41;5070641;28;20488;-59
2021/09/21 09:46:47;;;;;;;7.43;4.15;;;;;;;9.68;98.10;99210.09;5071938;28;20041;-57
2021/09/21 09:49:13;;;;;;;4.97;3.05;;;;;;;9.63;98.07;99212.03;5071833;28;20047;-57
2021/09/21 09:51:50;;;;;;;8.55;4.40;;;;;;;9.62;97.75;99205.97;5071614;28;20503;-59
2021/09/21 09:54:17;;;;;;;11.55;5.80;;;;;;;9.49;97.21;99191.75;5071765;28;20129;-59
2021/09/21 09:56:47;;;;;;;5.80;3.20;;;;;;;9.62;97.46;99210.31;5071747;28;20083;-58
2021/09/21 09:59:17;;;;;;;5.80;4.00;;;;;;;9.61;96.91;99211.22;5070411;28;20048;-57
2021/09/21 10:01:43;;;;;;;7.53;3.63;;;;;;;9.53;97.51;99195.06;5071670;28;20123;-60
2021/09/21 10:04:13;;;;;;;5.65;2.97;;;;;;;9.66;97.05;99224.88;5070285;28;20043;-57
2021/09/21 10:06:39;;;;;;;5.80;3.10;;;;;;;9.63;96.87;99225.81;5069792;28;20052;-58
2021/09/21 10:09:05;;;;;;;3.50;2.92;;;;;;;9.65;97.37;99224.03;5087800;28;20051;-59
2021/09/21 10:11:31;;;;;;;3.92;3.35;;;;;;;9.67;97.37;99224.81;5091012;28;20538;-58
2021/09/21 10:13:59;;;;;;;3.90;3.08;;;;;;;9.65;97.35;99225.75;5073456;28;20043;-59
2021/09/21 10:16:25;;;;;;;10.73;7.20;;;;;;;9.66;97.39;99222.28;5089892;28;20039;-61
2021/09/21 10:18:55;;;;;;;5.47;4.40;;;;;;;9.65;96.95;99213.63;5089922;28;20097;-57
2021/09/21 10:21:36;;;;;;;14.40;7.22;;;;;;;9.63;96.83;99217.22;5073337;28;20039;-60
2021/09/21 10:24:04;;;;;;;8.65;4.45;;;;;;;9.55;96.70;99212.28;5089959;28;20039;-60
2021/09/21 10:26:31;;;;;;;7.25;4.40;;;;;;;9.50;96.93;99205.59;5089893;28;20153;-60
2021/09/21 10:28:59;;;;;;;6.50;3.47;;;;;;;9.62;97.20;99223.31;5089747;28;20046;-60
2021/09/21 10:31:26;;;;;;;11.68;3.90;;;;;;;9.52;96.98;99202.03;5056818;28;20044;-58
2021/09/21 10:33:52;;;;;;;11.35;5.38;;;;;;;9.60;96.72;99212.13;5089840;28;20036;-60
2021/09/21 10:36:31;;;;;;;6.88;3.95;;;;;;;9.58;97.20;99212.16;5073157;28;20105;-59
2021/09/21 10:39:06;;;;;;;7.72;4.28;;;;;;;9.60;96.36;99222.50;5074136;28;20036;-61
2021/09/21 10:41:32;;;;;;;5.28;3.95;;;;;;;9.62;96.92;99211.16;5073258;28;20040;-60
2021/09/21 10:44:00;;;;;;;12.43;6.40;;;;;;;9.67;96.41;99218.78;5073121;28;20051;-60
2021/09/21 10:46:26;;;;;;;7.60;5.18;;;;;;;9.67;96.88;99198.03;5091180;28;20043;-59
2021/09/21 10:48:51;;;;;;;9.00;4.97;;;;;;;9.72;96.73;99209.91;5089714;28;20044;-58
2021/09/21 10:51:22;;;;;;;5.28;4.00;;;;;;;9.74;97.06;99215.88;5056296;28;20547;-59
2021/09/21 10:53:58;;;;;;;5.65;4.07;;;;;;;9.76;96.54;99223.63;5072722;28;20044;-61
2021/09/21 10:56:24;;;;;;;10.18;5.47;;;;;;;9.76;96.79;99223.63;5090638;28;20533;-59
2021/09/21 10:58:52;;;;;;;6.90;4.43;;;;;;;9.79;96.84;99229.53;5072656;28;20126;-59
2021/09/21 11:01:18;;;;;;;5.43;4.03;;;;;;;9.77;97.25;99226.16;5090708;28;20042;-56
2021/09/21 11:03:44;;;;;;;5.93;4.40;;;;;;;9.65;96.35;99216.22;5088888;28;20040;-58
2021/09/21 11:06:12;;;;;;;5.57;4.30;;;;;;;9.68;96.32;99234.28;5072097;28;20524;-59
2021/09/21 11:08:38;;;;;;;8.13;4.97;;;;;;;9.67;96.05;99237.78;5077675;28;20146;-59
2021/09/21 11:11:04;;;;;;;7.80;4.25;;;;;;;9.61;95.80;99232.84;5070743;28;20097;-59
2021/09/21 11:13:41;;;;;;;9.85;5.30;;;;;;;9.57;96.41;99233.84;5071121;28;20127;-58
2021/09/21 11:16:09;;;;;;;7.45;5.20;;;;;;;9.58;97.04;99234.69;5069606;28;20032;-56
2021/09/21 11:18:36;;;;;;;7.82;4.72;;;;;;;9.55;96.89;99221.81;5069317;28;20032;-58
2021/09/21 11:21:07;;;;;;;6.95;4.93;;;;;;;9.59;96.93;99229.44;5069840;28;20505;-58
2021/09/21 11:23:36;;;;;;;6.82;4.50;;;;;;;9.65;96.93;99236.16;5068051;28;20490;-59
2021/09/21 11:26:04;;;;;;;5.10;3.90;;;;;;;9.57;97.05;99231.25;5069979;28;20036;-59
2021/09/21 11:28:32;;;;;;;6.13;4.57;;;;;;;9.57;96.67;99227.81;5070008;28;20386;-58
2021/09/21 11:30:58;;;;;;;6.10;3.80;;;;;;;9.53;96.57;99229.66;5069937;28;20279;-58
2021/09/21 11:33:26;;;;;;;4.75;3.25;;;;;;;9.47;96.85;99221.28;5085275;28;20075;-57
2021/09/21 11:35:54;;;;;;;5.25;3.60;;;;;;;9.49;97.01;99220.31;5068622;28;20032;-57
2021/09/21 11:38:21;;;;;;;4.68;3.50;;;;;;;9.60;96.24;99227.69;5069823;28;20037;-57
2021/09/21 11:40:50;;;;;;;6.13;3.90;;;;;;;9.46;96.38;99209.22;5069476;28;20067;-57
2021/09/21 11:43:16;;;;;;;4.00;3.03;;;;;;;9.61;96.21;99232.84;5068405;28;20093;-58
2021/09/21 11:45:44;;;;;;;5.30;3.85;;;;;;;9.53;96.52;99224.47;5069620;28;20290;-57
2021/09/21 11:48:11;;;;;;;4.90;3.77;;;;;;;9.54;96.56;99220.13;5068295;28;20100;-57